sensor_id;sensor_type;location;lat;lon;timestamp;pressure;altitude;pressure_sealevel;temperature;humidity
22743;BME280;11538;48.884;8.696;2023-12-22T00:02:20;97490.09;;;8.14;100.00
22743;BME280;11538;48.884;8.696;2023-12-22T00:04:47;97500.91;;;8.14;100.00
22743;BME280;11538;48.884;8.696;2023-12-22T00:07:14;97487.41;;;8.14;100.00
22743;BME280;11538;48.884;8.696;2023-12-22T00:09:42;97482.34;;;8.13;100.00
22743;BME280;11538;48.884;8.696;2023-12-22T00:12:08;97500.91;;;8.14;100.00
22743;BME280;11538;48.884;8.696;2023-12-22T00:14:35;97501.72;;;8.15;100.00
22743;BME280;11538;48.884;8.696;2023-12-22T00:17:04;97487.72;;;8.13;100.00
22743;BME280;11538;48.884;8.696;2023-12-22T00:19:30;97504.09;;;8.16;100.00
22743;BME280;11538;48.884;8.696;2023-12-22T00:21:58;97500.75;;;8.19;100.00
22743;BME280;11538;48.884;8.696;2023-12-22T00:24:25;97498.84;;;8.20;100.00
22743;BME280;11538;48.884;8.696;2023-12-22T00:26:52;97524.28;;;8.19;100.00
22743;BME280;11538;48.884;8.696;2023-12-22T00:29:19;97548.59;;;8.19;100.00
22743;BME280;11538;48.884;8.696;2023-12-22T00:31:47;97563.69;;;8.20;100.00
22743;BME280;11538;48.884;8.696;2023-12-22T00:34:14;97578.31;;;8.19;100.00
22743;BME280;11538;48.884;8.696;2023-12-22T00:36:41;97560.50;;;8.18;100.00
22743;BME280;11538;48.884;8.696;2023-12-22T00:39:08;97567.50;;;8.19;100.00
22743;BME280;11538;48.884;8.696;2023-12-22T00:41:35;97565.91;;;8.18;100.00
22743;BME280;11538;48.884;8.696;2023-12-22T00:44:02;97561.28;;;8.18;100.00
22743;BME280;11538;48.884;8.696;2023-12-22T00:46:29;97570.50;;;8.17;100.00
22743;BME280;11538;48.884;8.696;2023-12-22T00:48:56;97555.09;;;8.18;100.00
22743;BME280;11538;48.884;8.696;2023-12-22T00:51:23;97556.38;;;8.20;100.00
22743;BME280;11538;48.884;8.696;2023-12-22T00:53:50;97552.41;;;8.18;100.00
22743;BME280;11538;48.884;8.696;2023-12-22T00:56:17;97543.50;;;8.17;100.00
22743;BME280;11538;48.884;8.696;2023-12-22T00:58:43;97538.41;;;8.16;100.00
22743;BME280;11538;48.884;8.696;2023-12-22T01:01:21;97533.78;;;8.16;100.00
22743;BME280;11538;48.884;8.696;2023-12-22T01:03:48;97536.81;;;8.15;100.00
22743;BME280;11538;48.884;8.696;2023-12-22T01:06:14;97536.34;;;8.13;100.00
22743;BME280;11538;48.884;8.696;2023-12-22T01:08:41;97553.47;;;8.08;100.00
22743;BME280;11538;48.884;8.696;2023-12-22T01:11:08;97539.19;;;8.08;100.00
22743;BME280;11538;48.884;8.696;2023-12-22T01:13:35;97539.97;;;8.08;100.00
22743;BME280;11538;48.884;8.696;2023-12-22T01:16:02;97554.28;;;8.09;100.00
22743;BME280;11538;48.884;8.696;2023-12-22T01:18:29;97537.91;;;8.05;100.00
22743;BME280;11538;48.884;8.696;2023-12-22T01:20:56;97541.72;;;8.04;100.00
22743;BME280;11538;48.884;8.696;2023-12-22T01:23:23;97572.84;;;8.01;100.00
22743;BME280;11538;48.884;8.696;2023-12-22T01:25:52;97570.94;;;8.02;100.00
22743;BME280;11538;48.884;8.696;2023-12-22T01:28:19;97574.44;;;8.02;100.00
22743;BME280;11538;48.884;8.696;2023-12-22T01:30:45;97572.53;;;8.03;100.00
22743;BME280;11538;48.884;8.696;2023-12-22T01:33:12;97591.44;;;8.03;100.00
22743;BME280;11538;48.884;8.696;2023-12-22T01:35:40;97582.06;;;8.00;100.00
22743;BME280;11538;48.884;8.696;2023-12-22T01:38:06;97587.13;;;8.02;100.00
22743;BME280;11538;48.884;8.696;2023-12-22T01:40:33;97609.34;;;7.99;100.00
22743;BME280;11538;48.884;8.696;2023-12-22T01:43:01;97615.88;;;7.98;100.00
22743;BME280;11538;48.884;8.696;2023-12-22T01:45:28;97616.28;;;7.91;100.00
22743;BME280;11538;48.884;8.696;2023-12-22T01:47:55;97619.13;;;7.86;100.00
22743;BME280;11538;48.884;8.696;2023-12-22T01:50:23;97638.66;;;7.83;100.00
22743;BME280;11538;48.884;8.696;2023-12-22T01:52:50;97623.06;;;7.80;100.00
22743;BME280;11538;48.884;8.696;2023-12-22T01:55:18;97622.59;;;7.78;100.00
22743;BME280;11538;48.884;8.696;2023-12-22T01:57:47;97616.41;;;7.77;100.00
22743;BME280;11538;48.884;8.696;2023-12-22T02:00:17;97620.22;;;7.76;100.00
22743;BME280;11538;48.884;8.696;2023-12-22T02:02:44;97634.81;;;7.75;100.00
22743;BME280;11538;48.884;8.696;2023-12-22T02:05:11;97643.03;;;7.70;100.00
22743;BME280;11538;48.884;8.696;2023-12-22T02:07:41;97627.47;;;7.67;100.00
22743;BME280;11538;48.884;8.696;2023-12-22T02:10:09;97608.56;;;7.67;100.00
22743;BME280;11538;48.884;8.696;2023-12-22T02:12:37;97610.94;;;7.68;100.00
22743;BME280;11538;48.884;8.696;2023-12-22T02:15:05;97604.44;;;7.69;100.00
22743;BME280;11538;48.884;8.696;2023-12-22T02:17:55;97628.25;;;7.67;100.00
22743;BME280;11538;48.884;8.696;2023-12-22T02:20:26;97622.84;;;7.67;100.00
22743;BME280;11538;48.884;8.696;2023-12-22T02:22:53;97626.03;;;7.69;100.00
22743;BME280;11538;48.884;8.696;2023-12-22T02:25:20;97623.81;;;7.71;100.00
22743;BME280;11538;48.884;8.696;2023-12-22T02:27:59;97615.72;;;7.71;100.00
22743;BME280;11538;48.884;8.696;2023-12-22T02:33:04;97600.50;;;7.75;100.00
22743;BME280;11538;48.884;8.696;2023-12-22T02:35:36;97615.91;;;7.75;100.00
22743;BME280;11538;48.884;8.696;2023-12-22T02:38:05;97610.19;;;7.76;100.00
22743;BME280;11538;48.884;8.696;2023-12-22T02:40:34;97599.09;;;7.78;100.00
22743;BME280;11538;48.884;8.696;2023-12-22T02:43:03;97613.38;;;7.79;100.00
22743;BME280;11538;48.884;8.696;2023-12-22T02:45:31;97615.31;;;7.78;100.00
22743;BME280;11538;48.884;8.696;2023-12-22T02:47:59;97621.97;;;7.81;100.00
22743;BME280;11538;48.884;8.696;2023-12-22T02:50:26;97606.59;;;7.81;100.00
22743;BME280;11538;48.884;8.696;2023-12-22T02:52:53;97586.38;;;7.79;100.00
22743;BME280;11538;48.884;8.696;2023-12-22T02:55:20;97581.81;;;7.79;100.00
22743;BME280;11538;48.884;8.696;2023-12-22T02:57:46;97582.59;;;7.80;100.00
22743;BME280;11538;48.884;8.696;2023-12-22T03:00:15;97606.38;;;7.78;100.00
22743;BME280;11538;48.884;8.696;2023-12-22T03:02:42;97609.41;;;7.76;100.00
22743;BME280;11538;48.884;8.696;2023-12-22T03:05:09;97610.53;;;7.75;100.00
22743;BME280;11538;48.884;8.696;2023-12-22T03:07:35;97621.00;;;7.76;100.00
22743;BME280;11538;48.884;8.696;2023-12-22T03:10:03;97615.91;;;7.75;100.00
22743;BME280;11538;48.884;8.696;2023-12-22T03:12:30;97615.91;;;7.75;100.00
22743;BME280;11538;48.884;8.696;2023-12-22T03:14:57;97612.41;;;7.74;100.00
22743;BME280;11538;48.884;8.696;2023-12-22T03:17:24;97637.81;;;7.73;100.00
22743;BME280;11538;48.884;8.696;2023-12-22T03:19:51;97617.81;;;7.74;100.00
22743;BME280;11538;48.884;8.696;2023-12-22T03:22:17;97607.81;;;7.75;100.00
22743;BME280;11538;48.884;8.696;2023-12-22T03:24:44;97621.00;;;7.76;100.00
22743;BME280;11538;48.884;8.696;2023-12-22T03:27:11;97612.91;;;7.76;100.00
22743;BME280;11538;48.884;8.696;2023-12-22T03:29:44;97629.09;;;7.76;100.00
22743;BME280;11538;48.884;8.696;2023-12-22T03:32:14;97631.78;;;7.76;100.00
22743;BME280;11538;48.884;8.696;2023-12-22T03:34:41;97618.63;;;7.75;100.00
22743;BME280;11538;48.884;8.696;2023-12-22T03:37:08;97645.78;;;7.79;100.00
22743;BME280;11538;48.884;8.696;2023-12-22T03:39:35;97612.91;;;7.76;100.00
22743;BME280;11538;48.884;8.696;2023-12-22T03:42:02;97614.31;;;7.74;100.00
22743;BME280;11538;48.884;8.696;2023-12-22T03:44:29;97625.13;;;7.74;100.00
22743;BME280;11538;48.884;8.696;2023-12-22T03:46:55;97634.94;;;7.70;100.00
22743;BME280;11538;48.884;8.696;2023-12-22T03:49:23;97634.94;;;7.70;100.00
22743;BME280;11538;48.884;8.696;2023-12-22T03:51:50;97619.84;;;7.69;100.00
22743;BME280;11538;48.884;8.696;2023-12-22T03:54:17;97630.16;;;7.67;100.00
22743;BME280;11538;48.884;8.696;2023-12-22T03:56:44;97628.72;;;7.69;100.00
22743;BME280;11538;48.884;8.696;2023-12-22T03:59:11;97615.84;;;7.66;100.00
22743;BME280;11538;48.884;8.696;2023-12-22T04:01:39;97619.66;;;7.65;100.00
22743;BME280;11538;48.884;8.696;2023-12-22T04:04:06;97633.28;;;7.60;100.00
22743;BME280;11538;48.884;8.696;2023-12-22T04:06:38;97647.84;;;7.50;100.00
22743;BME280;11538;48.884;8.696;2023-12-22T04:09:06;97639.38;;;7.43;100.00
22743;BME280;11538;48.884;8.696;2023-12-22T04:11:33;97648.38;;;7.38;100.00
22743;BME280;11538;48.884;8.696;2023-12-22T04:14:05;97651.41;;;7.37;100.00
22743;BME280;11538;48.884;8.696;2023-12-22T04:16:32;97640.91;;;7.35;100.00
22743;BME280;11538;48.884;8.696;2023-12-22T04:19:00;97636.00;;;7.37;100.00
22743;BME280;11538;48.884;8.696;2023-12-22T04:21:27;97651.91;;;7.39;100.00
22743;BME280;11538;48.884;8.696;2023-12-22T04:23:54;97659.97;;;7.39;100.00
22743;BME280;11538;48.884;8.696;2023-12-22T04:26:20;97661.88;;;7.38;100.00
22743;BME280;11538;48.884;8.696;2023-12-22T04:28:47;97655.38;;;7.39;100.00
22743;BME280;11538;48.884;8.696;2023-12-22T04:31:14;97669.19;;;7.38;100.00
22743;BME280;11538;48.884;8.696;2023-12-22T04:33:41;97666.16;;;7.39;100.00
22743;BME280;11538;48.884;8.696;2023-12-22T04:36:08;97655.38;;;7.39;100.00
22743;BME280;11538;48.884;8.696;2023-12-22T04:38:35;97663.97;;;7.41;100.00
22743;BME280;11538;48.884;8.696;2023-12-22T04:41:02;97655.88;;;7.41;100.00
22743;BME280;11538;48.884;8.696;2023-12-22T04:43:29;97667.75;;;7.40;100.00
22743;BME280;11538;48.884;8.696;2023-12-22T04:45:56;97666.66;;;7.41;100.00
22743;BME280;11538;48.884;8.696;2023-12-22T04:48:26;97666.16;;;7.39;100.00
22743;BME280;11538;48.884;8.696;2023-12-22T04:50:52;97656.97;;;7.40;100.00
22743;BME280;11538;48.884;8.696;2023-12-22T04:53:19;97667.75;;;7.40;100.00
22743;BME280;11538;48.884;8.696;2023-12-22T04:55:47;97677.44;;;7.41;100.00
22743;BME280;11538;48.884;8.696;2023-12-22T04:58:14;97677.94;;;7.43;100.00
22743;BME280;11538;48.884;8.696;2023-12-22T05:00:41;97685.75;;;7.45;100.00
22743;BME280;11538;48.884;8.696;2023-12-22T05:03:08;97678.44;;;7.45;100.00
22743;BME280;11538;48.884;8.696;2023-12-22T05:05:34;97677.03;;;7.48;100.00
22743;BME280;11538;48.884;8.696;2023-12-22T05:08:01;97665.75;;;7.46;100.00
22743;BME280;11538;48.884;8.696;2023-12-22T05:10:29;97669.72;;;7.49;100.00
22743;BME280;11538;48.884;8.696;2023-12-22T05:12:56;97658.94;;;7.49;100.00
22743;BME280;11538;48.884;8.696;2023-12-22T05:15:23;97655.13;;;7.50;100.00
22743;BME280;11538;48.884;8.696;2023-12-22T05:17:50;97662.59;;;7.53;100.00
22743;BME280;11538;48.884;8.696;2023-12-22T05:20:17;97663.09;;;7.55;100.00
22743;BME280;11538;48.884;8.696;2023-12-22T05:22:44;97652.31;;;7.55;100.00
22743;BME280;11538;48.884;8.696;2023-12-22T05:25:13;97664.06;;;7.59;100.00
22743;BME280;11538;48.884;8.696;2023-12-22T05:27:40;97666.47;;;7.60;100.00
22743;BME280;11538;48.884;8.696;2023-12-22T05:30:10;97666.16;;;7.62;100.00
22743;BME280;11538;48.884;8.696;2023-12-22T05:32:37;97663.66;;;7.66;100.00
22743;BME280;11538;48.884;8.696;2023-12-22T05:35:05;97684.44;;;7.65;100.00
22743;BME280;11538;48.884;8.696;2023-12-22T05:37:34;97680.00;;;7.69;100.00
22743;BME280;11538;48.884;8.696;2023-12-22T05:40:00;97691.31;;;7.71;100.00
22743;BME280;11538;48.884;8.696;2023-12-22T05:42:27;97697.19;;;7.73;100.00
22743;BME280;11538;48.884;8.696;2023-12-22T05:44:54;97692.28;;;7.75;100.00
22743;BME280;11538;48.884;8.696;2023-12-22T05:47:21;97708.97;;;7.78;100.00
22743;BME280;11538;48.884;8.696;2023-12-22T05:49:48;97705.16;;;7.79;100.00
22743;BME280;11538;48.884;8.696;2023-12-22T05:52:15;97712.97;;;7.80;100.00
22743;BME280;11538;48.884;8.696;2023-12-22T05:54:42;97686.94;;;7.84;100.00
22743;BME280;11538;48.884;8.696;2023-12-22T05:57:09;97706.63;;;7.85;100.00
22743;BME280;11538;48.884;8.696;2023-12-22T05:59:36;97717.91;;;7.87;100.00
22743;BME280;11538;48.884;8.696;2023-12-22T06:02:03;97733.81;;;7.88;100.00
22743;BME280;11538;48.884;8.696;2023-12-22T06:04:30;97711.91;;;7.90;100.00
22743;BME280;11538;48.884;8.696;2023-12-22T06:06:57;97721.09;;;7.89;100.00
22743;BME280;11538;48.884;8.696;2023-12-22T06:09:24;97719.50;;;7.88;100.00
22743;BME280;11538;48.884;8.696;2023-12-22T06:11:53;97720.31;;;7.88;100.00
22743;BME280;11538;48.884;8.696;2023-12-22T06:14:20;97709.03;;;7.86;100.00
22743;BME280;11538;48.884;8.696;2023-12-22T06:16:47;97711.41;;;7.88;100.00
22743;BME280;11538;48.884;8.696;2023-12-22T06:19:14;97726.81;;;7.87;100.00
22743;BME280;11538;48.884;8.696;2023-12-22T06:21:41;97714.91;;;7.88;100.00
22743;BME280;11538;48.884;8.696;2023-12-22T06:24:08;97733.81;;;7.88;100.00
22743;BME280;11538;48.884;8.696;2023-12-22T06:26:36;97729.53;;;7.87;100.00
22743;BME280;11538;48.884;8.696;2023-12-22T06:29:03;97722.22;;;7.88;100.00
22743;BME280;11538;48.884;8.696;2023-12-22T06:31:30;97732.22;;;7.87;100.00
22743;BME280;11538;48.884;8.696;2023-12-22T06:33:57;97743.50;;;7.89;100.00
22743;BME280;11538;48.884;8.696;2023-12-22T06:36:29;97740.81;;;7.89;100.00
22743;BME280;11538;48.884;8.696;2023-12-22T06:38:57;97766.22;;;7.88;100.00
22743;BME280;11538;48.884;8.696;2023-12-22T06:41:29;97744.13;;;7.86;100.00
22743;BME280;11538;48.884;8.696;2023-12-22T06:43:57;97747.44;;;7.83;100.00
22743;BME280;11538;48.884;8.696;2023-12-22T06:46:28;97737.06;;;7.76;100.00
22743;BME280;11538;48.884;8.696;2023-12-22T06:48:57;97759.59;;;7.72;100.00
22743;BME280;11538;48.884;8.696;2023-12-22T06:51:28;97758.28;;;7.69;100.00
22743;BME280;11538;48.884;8.696;2023-12-22T06:53:58;97742.22;;;7.64;100.00
22743;BME280;11538;48.884;8.696;2023-12-22T06:56:32;97776.19;;;7.65;100.00
22743;BME280;11538;48.884;8.696;2023-12-22T06:59:00;97765.41;;;7.65;100.00
22743;BME280;11538;48.884;8.696;2023-12-22T07:01:35;97764.28;;;7.66;100.00
22743;BME280;11538;48.884;8.696;2023-12-22T07:04:04;97770.00;;;7.65;100.00
22743;BME280;11538;48.884;8.696;2023-12-22T07:06:34;97773.63;;;7.60;100.00
22743;BME280;11538;48.884;8.696;2023-12-22T07:11:48;97790.13;;;7.58;100.00
22743;BME280;11538;48.884;8.696;2023-12-22T07:14:17;97790.91;;;7.59;100.00
22743;BME280;11538;48.884;8.696;2023-12-22T07:16:45;97782.03;;;7.58;100.00
22743;BME280;11538;48.884;8.696;2023-12-22T07:19:12;97793.94;;;7.57;100.00
22743;BME280;11538;48.884;8.696;2023-12-22T07:21:40;97785.63;;;7.54;100.00
22743;BME280;11538;48.884;8.696;2023-12-22T07:24:10;97779.44;;;7.53;100.00
22743;BME280;11538;48.884;8.696;2023-12-22T07:26:37;97788.94;;;7.51;100.00
22743;BME280;11538;48.884;8.696;2023-12-22T07:29:04;97809.41;;;7.52;100.00
22743;BME280;11538;48.884;8.696;2023-12-22T07:31:31;97802.63;;;7.54;100.00
22743;BME280;11538;48.884;8.696;2023-12-22T07:33:59;97799.94;;;7.54;100.00
22743;BME280;11538;48.884;8.696;2023-12-22T07:36:25;97795.44;;;7.50;100.00
22743;BME280;11538;48.884;8.696;2023-12-22T07:38:52;97785.25;;;7.46;100.00
22743;BME280;11538;48.884;8.696;2023-12-22T07:41:21;97785.84;;;7.43;100.00
22743;BME280;11538;48.884;8.696;2023-12-22T07:43:48;97806.44;;;7.39;100.00
22743;BME280;11538;48.884;8.696;2023-12-22T07:46:20;97782.47;;;7.38;100.00
22743;BME280;11538;48.884;8.696;2023-12-22T07:48:49;97787.88;;;7.38;100.00
22743;BME280;11538;48.884;8.696;2023-12-22T07:51:18;97788.16;;;7.36;100.00
22743;BME280;11538;48.884;8.696;2023-12-22T07:53:45;97805.66;;;7.39;100.00
22743;BME280;11538;48.884;8.696;2023-12-22T07:56:12;97794.06;;;7.38;100.00
22743;BME280;11538;48.884;8.696;2023-12-22T07:58:39;97806.25;;;7.36;100.00
22743;BME280;11538;48.884;8.696;2023-12-22T08:01:06;97807.66;;;7.33;100.00
22743;BME280;11538;48.884;8.696;2023-12-22T08:03:34;97808.75;;;7.32;100.00
22743;BME280;11538;48.884;8.696;2023-12-22T08:06:01;97823.34;;;7.31;100.00
22743;BME280;11538;48.884;8.696;2023-12-22T08:08:28;97827.34;;;7.34;100.00
22743;BME280;11538;48.884;8.696;2023-12-22T08:10:55;97826.13;;;7.40;100.00
22743;BME280;11538;48.884;8.696;2023-12-22T08:13:22;97827.41;;;7.42;100.00
22743;BME280;11538;48.884;8.696;2023-12-22T08:15:49;97842.72;;;7.47;100.00
22743;BME280;11538;48.884;8.696;2023-12-22T08:18:17;97840.19;;;7.51;100.00
22743;BME280;11538;48.884;8.696;2023-12-22T08:20:44;97831.50;;;7.54;100.00
22743;BME280;11538;48.884;8.696;2023-12-22T08:23:14;97864.09;;;7.57;100.00
22743;BME280;11538;48.884;8.696;2023-12-22T08:25:42;97874.56;;;7.59;100.00
22743;BME280;11538;48.884;8.696;2023-12-22T08:28:11;97857.75;;;7.62;100.00
22743;BME280;11538;48.884;8.696;2023-12-22T08:30:40;97847.47;;;7.64;100.00
22743;BME280;11538;48.884;8.696;2023-12-22T08:33:07;97830.50;;;7.64;100.00
22743;BME280;11538;48.884;8.696;2023-12-22T08:35:34;97847.47;;;7.64;100.00
22743;BME280;11538;48.884;8.696;2023-12-22T08:38:01;97832.25;;;7.68;100.00
22743;BME280;11538;48.884;8.696;2023-12-22T08:40:29;97839.75;;;7.71;100.00
22743;BME280;11538;48.884;8.696;2023-12-22T08:42:57;97840.25;;;7.73;100.00
22743;BME280;11538;48.884;8.696;2023-12-22T08:45:28;97852.34;;;7.76;100.00
22743;BME280;11538;48.884;8.696;2023-12-22T08:47:56;97845.84;;;7.77;100.00
22743;BME280;11538;48.884;8.696;2023-12-22T08:50:23;97844.44;;;7.80;100.00
22743;BME280;11538;48.884;8.696;2023-12-22T08:52:51;97861.13;;;7.82;100.00
22743;BME280;11538;48.884;8.696;2023-12-22T08:55:18;97841.94;;;7.83;100.00
22743;BME280;11538;48.884;8.696;2023-12-22T08:57:45;97848.59;;;7.86;100.00
22743;BME280;11538;48.884;8.696;2023-12-22T09:00:22;97853.72;;;7.87;100.00
22743;BME280;11538;48.884;8.696;2023-12-22T09:02:49;97854.50;;;7.88;100.00
22743;BME280;11538;48.884;8.696;2023-12-22T09:05:16;97859.28;;;7.91;100.00
22743;BME280;11538;48.884;8.696;2023-12-22T09:07:45;97861.69;;;7.93;100.00
22743;BME280;11538;48.884;8.696;2023-12-22T09:10:13;97853.81;;;7.96;100.00
22743;BME280;11538;48.884;8.696;2023-12-22T09:12:40;97858.09;;;7.97;100.00
22743;BME280;11538;48.884;8.696;2023-12-22T09:15:07;97854.28;;;7.98;100.00
22743;BME280;11538;48.884;8.696;2023-12-22T09:17:34;97852.88;;;8.01;100.00
22743;BME280;11538;48.884;8.696;2023-12-22T09:20:02;97856.06;;;8.03;100.00
22743;BME280;11538;48.884;8.696;2023-12-22T09:22:29;97854.97;;;8.04;100.00
22743;BME280;11538;48.884;8.696;2023-12-22T09:24:56;97866.56;;;8.04;100.00
22743;BME280;11538;48.884;8.696;2023-12-22T09:27:23;97860.84;;;8.06;100.00
22743;BME280;11538;48.884;8.696;2023-12-22T09:29:50;97864.38;;;8.07;100.00
22743;BME280;11538;48.884;8.696;2023-12-22T09:32:17;97870.25;;;8.09;100.00
22743;BME280;11538;48.884;8.696;2023-12-22T09:34:44;97869.44;;;8.08;100.00
22743;BME280;11538;48.884;8.696;2023-12-22T09:37:11;97872.16;;;8.08;100.00
22743;BME280;11538;48.884;8.696;2023-12-22T09:39:38;97876.44;;;8.09;100.00
22743;BME280;11538;48.884;8.696;2023-12-22T09:42:05;97882.66;;;8.10;100.00
22743;BME280;11538;48.884;8.696;2023-12-22T09:44:32;97875.06;;;8.12;100.00
22743;BME280;11538;48.884;8.696;2023-12-22T09:47:04;97875.22;;;8.15;100.00
22743;BME280;11538;48.884;8.696;2023-12-22T09:49:34;97864.41;;;8.15;100.00
22743;BME280;11538;48.884;8.696;2023-12-22T09:52:06;97866.00;;;8.16;100.00
22743;BME280;11538;48.884;8.696;2023-12-22T09:54:34;97859.84;;;8.16;100.00
22743;BME280;11538;48.884;8.696;2023-12-22T09:57:04;97855.53;;;8.15;100.00
22743;BME280;11538;48.884;8.696;2023-12-22T09:59:50;97856.03;;;8.17;100.00
22743;BME280;11538;48.884;8.696;2023-12-22T10:02:19;97863.03;;;8.18;100.00
22743;BME280;11538;48.884;8.696;2023-12-22T10:04:46;97854.59;;;8.19;100.00
22743;BME280;11538;48.884;8.696;2023-12-22T10:07:17;97873.22;;;8.21;100.00
22743;BME280;11538;48.884;8.696;2023-12-22T10:09:46;97859.22;;;8.19;100.00
22743;BME280;11538;48.884;8.696;2023-12-22T10:12:15;97862.09;;;8.23;100.00
22743;BME280;11538;48.884;8.696;2023-12-22T10:14:42;97870.19;;;8.23;100.00
22743;BME280;11538;48.884;8.696;2023-12-22T10:17:10;97847.81;;;8.22;100.00
22743;BME280;11538;48.884;8.696;2023-12-22T10:19:38;97854.31;;;8.21;100.00
22743;BME280;11538;48.884;8.696;2023-12-22T10:22:06;97846.22;;;8.21;100.00
22743;BME280;11538;48.884;8.696;2023-12-22T10:24:44;97847.00;;;8.22;100.00
22743;BME280;11538;48.884;8.696;2023-12-22T10:27:15;97851.28;;;8.23;100.00
22743;BME280;11538;48.884;8.696;2023-12-22T10:29:58;97841.28;;;8.23;100.00
22743;BME280;11538;48.884;8.696;2023-12-22T10:32:28;97830.00;;;8.21;100.00
22743;BME280;11538;48.884;8.696;2023-12-22T10:34:56;97829.00;;;8.17;100.00
22743;BME280;11538;48.884;8.696;2023-12-22T10:37:26;97833.94;;;8.15;100.00
22743;BME280;11538;48.884;8.696;2023-12-22T10:39:54;97837.84;;;8.09;100.00
22743;BME280;11538;48.884;8.696;2023-12-22T10:42:21;97836.25;;;8.08;100.00
22743;BME280;11538;48.884;8.696;2023-12-22T10:44:48;97833.06;;;8.05;100.00
22743;BME280;11538;48.884;8.696;2023-12-22T10:47:19;97837.47;;;8.01;100.00
22743;BME280;11538;48.884;8.696;2023-12-22T10:49:49;97836.19;;;7.99;100.00
22743;BME280;11538;48.884;8.696;2023-12-22T10:52:18;97821.91;;;7.98;100.00
22743;BME280;11538;48.884;8.696;2023-12-22T10:54:45;97830.59;;;7.95;100.00
22743;BME280;11538;48.884;8.696;2023-12-22T10:57:12;97818.50;;;7.93;100.00
22743;BME280;11538;48.884;8.696;2023-12-22T10:59:47;97824.19;;;7.91;100.00
22743;BME280;11538;48.884;8.696;2023-12-22T11:02:27;97808.31;;;7.89;100.00
22743;BME280;11538;48.884;8.696;2023-12-22T11:05:04;97814.81;;;7.88;100.00
22743;BME280;11538;48.884;8.696;2023-12-22T11:07:36;97794.63;;;7.86;100.00
22743;BME280;11538;48.884;8.696;2023-12-22T11:10:07;97800.00;;;7.86;100.00
22743;BME280;11538;48.884;8.696;2023-12-22T11:12:38;97820.81;;;7.85;100.00
22743;BME280;11538;48.884;8.696;2023-12-22T11:15:06;97804.63;;;7.85;100.00
22743;BME280;11538;48.884;8.696;2023-12-22T11:17:36;97803.81;;;7.85;100.00
22743;BME280;11538;48.884;8.696;2023-12-22T11:20:12;97793.34;;;7.83;100.00
22743;BME280;11538;48.884;8.696;2023-12-22T11:22:42;97807.13;;;7.82;100.00
22743;BME280;11538;48.884;8.696;2023-12-22T11:25:10;97806.03;;;7.83;100.00
22743;BME280;11538;48.884;8.696;2023-12-22T11:27:43;97793.34;;;7.83;100.00
22743;BME280;11538;48.884;8.696;2023-12-22T11:30:14;97787.13;;;7.83;100.00
22743;BME280;11538;48.884;8.696;2023-12-22T11:32:43;97796.66;;;7.80;100.00
22743;BME280;11538;48.884;8.696;2023-12-22T11:35:11;97781.84;;;7.78;100.00
22743;BME280;11538;48.884;8.696;2023-12-22T11:37:42;97775.16;;;7.75;100.00
22743;BME280;11538;48.884;8.696;2023-12-22T11:40:10;97770.06;;;7.73;100.00
22743;BME280;11538;48.884;8.696;2023-12-22T11:42:42;97760.38;;;7.72;100.00
22743;BME280;11538;48.884;8.696;2023-12-22T11:45:14;97740.97;;;7.70;100.00
22743;BME280;11538;48.884;8.696;2023-12-22T11:47:43;97737.00;;;7.68;100.00
22743;BME280;11538;48.884;8.696;2023-12-22T11:50:12;97731.00;;;7.71;100.00
22743;BME280;11538;48.884;8.696;2023-12-22T11:52:39;97718.28;;;7.71;100.00
22743;BME280;11538;48.884;8.696;2023-12-22T11:55:07;97738.00;;;7.72;100.00
22743;BME280;11538;48.884;8.696;2023-12-22T11:57:36;97719.88;;;7.72;100.00
22743;BME280;11538;48.884;8.696;2023-12-22T12:02:58;97697.03;;;7.70;100.00
22743;BME280;11538;48.884;8.696;2023-12-22T12:05:25;97699.22;;;7.68;100.00
22743;BME280;11538;48.884;8.696;2023-12-22T12:07:52;97680.63;;;7.66;100.00
22743;BME280;11538;48.884;8.696;2023-12-22T12:13:09;97663.81;;;7.69;100.00
22743;BME280;11538;48.884;8.696;2023-12-22T12:15:38;97653.84;;;7.70;100.00
22743;BME280;11538;48.884;8.696;2023-12-22T12:18:05;97646.53;;;7.70;100.00
22743;BME280;11538;48.884;8.696;2023-12-22T12:20:33;97635.59;;;7.75;100.00
22743;BME280;11538;48.884;8.696;2023-12-22T12:23:04;97643.41;;;7.77;100.00
22743;BME280;11538;48.884;8.696;2023-12-22T12:25:33;97640.88;;;7.81;100.00
22743;BME280;11538;48.884;8.696;2023-12-22T12:28:10;97645.34;;;7.85;100.00
22743;BME280;11538;48.884;8.696;2023-12-22T12:30:39;97641.09;;;7.93;100.00
22743;BME280;11538;48.884;8.696;2023-12-22T12:33:10;97620.78;;;7.96;100.00
22743;BME280;11538;48.884;8.696;2023-12-22T12:35:40;97631.78;;;7.99;100.00
22743;BME280;11538;48.884;8.696;2023-12-22T12:38:13;97624.31;;;8.05;100.00
22743;BME280;11538;48.884;8.696;2023-12-22T12:40:50;97612.09;;;8.08;100.00
22743;BME280;11538;48.884;8.696;2023-12-22T12:43:17;97614.19;;;8.11;100.00
22743;BME280;11538;48.884;8.696;2023-12-22T12:45:45;97613.84;;;8.12;100.00
22743;BME280;11538;48.884;8.696;2023-12-22T12:48:16;97616.25;;;8.14;100.00
22743;BME280;11538;48.884;8.696;2023-12-22T12:50:45;97603.88;;;8.13;100.00
22743;BME280;11538;48.884;8.696;2023-12-22T12:53:12;97608.78;;;8.19;100.00
22743;BME280;11538;48.884;8.696;2023-12-22T12:55:39;97603.56;;;8.23;100.00
22743;BME280;11538;48.884;8.696;2023-12-22T12:58:06;97605.16;;;8.24;100.00
22743;BME280;11538;48.884;8.696;2023-12-22T13:00:34;97631.06;;;8.25;100.00
22743;BME280;11538;48.884;8.696;2023-12-22T13:03:08;97633.44;;;8.27;100.00
22743;BME280;11538;48.884;8.696;2023-12-22T13:05:35;97629.34;;;8.29;100.00
22743;BME280;11538;48.884;8.696;2023-12-22T13:08:10;97629.81;;;8.31;100.00
22743;BME280;11538;48.884;8.696;2023-12-22T13:10:40;97636.81;;;8.32;100.00
22743;BME280;11538;48.884;8.696;2023-12-22T13:13:08;97638.88;;;8.36;100.00
22743;BME280;11538;48.884;8.696;2023-12-22T13:15:40;97629.69;;;8.37;100.00
22743;BME280;11538;48.884;8.696;2023-12-22T13:18:07;97628.88;;;8.36;100.00